Main page
METAR-TAF:

METAR-TAF

Airports :

Lamoni Municipal Airport

Lamoni, Iowa, United States

latitude: 40-37-50N, longitude: 093-54-03W, elevation: 1128 ft

Current weather observation

The report was made 29 minutes ago, at 22:22 UTC
Wind 10 mph from the North/Northeast
Temperature 73°F
Humidity 89%
Pressure 30.22 in. Hg
Visibility: 10 miles
Few clouds at a height of 700 ft
Broken clouds at a height of 3500 ft
Overcast at a height of 5000 ft

METAR: KLWD 192222Z AUTO 02009KT 10SM FEW007 BKN035 OVC050 23/21 A3022 RMK AO2 T02280211

Time: 17:51 (22:51 UTC)


TAF: missing

Weather observations and forecasts of more than 4000 airports (METAR and TAF reports).

The available stations are represented by yellow and red dots on the map.

Hover mouse over dot to see the name of the station.

Then click to see weather observations and forecasts.

To change the map : click on the green buttons with a black cross to zoom in, on the green button with a dash to zoom out, or on the green arrows for adjacent maps.


METAR-TAF: